sensor_id;sensor_type;location;lat;lon;timestamp;pressure;altitude;pressure_sealevel;temperature;humidity
3150;BME280;32503;47.748;8.960;2023-04-30T00:01:00;97030.09;;;15.46;57.21
3150;BME280;32503;47.748;8.960;2023-04-30T00:03:27;97044.94;;;15.48;57.18
3150;BME280;32503;47.748;8.960;2023-04-30T00:05:55;97035.56;;;15.49;57.28
3150;BME280;32503;47.748;8.960;2023-04-30T00:08:22;97038.72;;;15.55;57.00
3150;BME280;32503;47.748;8.960;2023-04-30T00:10:49;97038.72;;;15.55;57.15
3150;BME280;32503;47.748;8.960;2023-04-30T00:13:17;97038.34;;;15.53;57.02
3150;BME280;32503;47.748;8.960;2023-04-30T00:15:44;97030.94;;;15.53;56.92
3150;BME280;32503;47.748;8.960;2023-04-30T00:18:11;97030.53;;;15.51;57.26
3150;BME280;32503;47.748;8.960;2023-04-30T00:20:38;97031.69;;;15.50;56.94
3150;BME280;32503;47.748;8.960;2023-04-30T00:23:06;97007.88;;;15.33;57.31
3150;BME280;32503;47.748;8.960;2023-04-30T00:25:33;97034.00;;;15.41;57.17
3150;BME280;32503;47.748;8.960;2023-04-30T00:28:00;97029.31;;;15.38;57.34
3150;BME280;32503;47.748;8.960;2023-04-30T00:30:29;97029.31;;;15.42;57.28
3150;BME280;32503;47.748;8.960;2023-04-30T00:32:56;97028.91;;;15.36;56.92
3150;BME280;32503;47.748;8.960;2023-04-30T00:35:23;97023.47;;;15.36;57.13
3150;BME280;32503;47.748;8.960;2023-04-30T00:37:50;97021.09;;;15.31;57.20
3150;BME280;32503;47.748;8.960;2023-04-30T00:40:18;97021.50;;;15.33;57.45
3150;BME280;32503;47.748;8.960;2023-04-30T00:42:46;97013.69;;;15.31;57.47
3150;BME280;32503;47.748;8.960;2023-04-30T00:45:13;97016.41;;;15.28;57.67
3150;BME280;32503;47.748;8.960;2023-04-30T00:47:44;97005.06;;;15.19;57.62
3150;BME280;32503;47.748;8.960;2023-04-30T00:50:11;97008.22;;;15.24;57.42
3150;BME280;32503;47.748;8.960;2023-04-30T00:52:40;97002.00;;;15.24;57.54
3150;BME280;32503;47.748;8.960;2023-04-30T00:55:08;96996.56;;;15.24;57.77
3150;BME280;32503;47.748;8.960;2023-04-30T00:57:36;97001.59;;;15.18;57.84
3150;BME280;32503;47.748;8.960;2023-04-30T01:00:05;97001.97;;;15.16;58.17
3150;BME280;32503;47.748;8.960;2023-04-30T01:02:35;96992.59;;;15.14;58.02
3150;BME280;32503;47.748;8.960;2023-04-30T01:05:05;96987.13;;;15.10;58.10
3150;BME280;32503;47.748;8.960;2023-04-30T01:07:33;96996.13;;;15.14;58.02
3150;BME280;32503;47.748;8.960;2023-04-30T01:10:01;96987.13;;;15.07;58.29
3150;BME280;32503;47.748;8.960;2023-04-30T01:12:36;96989.44;;;15.05;58.38
3150;BME280;32503;47.748;8.960;2023-04-30T01:15:09;96992.50;;;14.96;58.41
3150;BME280;32503;47.748;8.960;2023-04-30T01:17:47;96973.81;;;14.94;58.40
3150;BME280;32503;47.748;8.960;2023-04-30T01:20:18;96987.81;;;14.93;58.45
3150;BME280;32503;47.748;8.960;2023-04-30T01:22:51;96952.28;;;14.71;58.70
3150;BME280;32503;47.748;8.960;2023-04-30T01:25:41;96980.03;;;14.88;58.44
3150;BME280;32503;47.748;8.960;2023-04-30T01:28:14;96984.69;;;14.91;58.73
3150;BME280;32503;47.748;8.960;2023-04-30T01:30:42;96987.81;;;14.93;58.75
3150;BME280;32503;47.748;8.960;2023-04-30T01:33:11;96971.38;;;14.75;58.73
3150;BME280;32503;47.748;8.960;2023-04-30T01:36:00;96972.97;;;14.79;58.96
3150;BME280;32503;47.748;8.960;2023-04-30T01:38:51;96985.47;;;14.88;58.39
3150;BME280;32503;47.748;8.960;2023-04-30T01:41:31;96995.19;;;14.89;58.51
3150;BME280;32503;47.748;8.960;2023-04-30T01:44:16;97004.53;;;14.88;58.78
3150;BME280;32503;47.748;8.960;2023-04-30T01:46:56;96988.22;;;14.91;58.88
3150;BME280;32503;47.748;8.960;2023-04-30T01:49:31;96987.75;;;14.86;58.80
3150;BME280;32503;47.748;8.960;2023-04-30T01:52:08;96990.09;;;14.84;58.72
3150;BME280;32503;47.748;8.960;2023-04-30T01:54:44;96973.66;;;14.69;59.03
3150;BME280;32503;47.748;8.960;2023-04-30T01:57:20;96991.63;;;14.77;59.09
3150;BME280;32503;47.748;8.960;2023-04-30T01:59:49;96985.34;;;14.73;59.04
3150;BME280;32503;47.748;8.960;2023-04-30T02:02:16;96991.19;;;14.72;59.59
3150;BME280;32503;47.748;8.960;2023-04-30T02:04:43;96985.31;;;14.70;59.46
3150;BME280;32503;47.748;8.960;2023-04-30T02:07:12;96987.28;;;14.69;59.74
3150;BME280;32503;47.748;8.960;2023-04-30T02:09:43;96999.25;;;14.61;59.94
3150;BME280;32503;47.748;8.960;2023-04-30T02:12:10;96990.25;;;14.57;59.89
3150;BME280;32503;47.748;8.960;2023-04-30T02:14:37;97005.88;;;14.60;60.04
3150;BME280;32503;47.748;8.960;2023-04-30T02:17:06;96987.50;;;14.53;59.76
3150;BME280;32503;47.748;8.960;2023-04-30T02:19:33;96995.31;;;14.55;59.66
3150;BME280;32503;47.748;8.960;2023-04-30T02:22:00;96990.56;;;14.45;60.06
3150;BME280;32503;47.748;8.960;2023-04-30T02:24:27;96982.38;;;14.41;60.13
3150;BME280;32503;47.748;8.960;2023-04-30T02:26:54;96985.47;;;14.39;60.15
3150;BME280;32503;47.748;8.960;2023-04-30T02:29:21;96987.38;;;14.35;60.22
3150;BME280;32503;47.748;8.960;2023-04-30T02:31:48;96985.34;;;14.25;60.67
3150;BME280;32503;47.748;8.960;2023-04-30T02:34:17;96983.78;;;14.24;60.74
3150;BME280;32503;47.748;8.960;2023-04-30T02:36:44;96978.28;;;14.17;60.65
3150;BME280;32503;47.748;8.960;2023-04-30T02:39:11;96977.13;;;14.18;60.99
3150;BME280;32503;47.748;8.960;2023-04-30T02:41:38;96984.50;;;14.17;60.62
3150;BME280;32503;47.748;8.960;2023-04-30T02:44:05;96974.75;;;14.13;61.03
3150;BME280;32503;47.748;8.960;2023-04-30T02:46:32;96979.38;;;14.09;60.96
3150;BME280;32503;47.748;8.960;2023-04-30T02:48:59;96980.91;;;14.10;61.11
3150;BME280;32503;47.748;8.960;2023-04-30T02:51:27;96983.97;;;14.04;61.41
3150;BME280;32503;47.748;8.960;2023-04-30T02:53:54;96982.44;;;14.03;61.33
3150;BME280;32503;47.748;8.960;2023-04-30T02:56:21;96974.69;;;14.06;61.50
3150;BME280;32503;47.748;8.960;2023-04-30T02:58:48;96986.00;;;14.11;61.40
3150;BME280;32503;47.748;8.960;2023-04-30T03:01:15;96933.31;;;13.82;60.85
3150;BME280;32503;47.748;8.960;2023-04-30T03:03:42;96979.84;;;14.18;61.09
3150;BME280;32503;47.748;8.960;2023-04-30T03:06:09;96993.09;;;14.23;61.22
3150;BME280;32503;47.748;8.960;2023-04-30T03:08:37;96981.81;;;14.21;61.25
3150;BME280;32503;47.748;8.960;2023-04-30T03:11:04;96983.34;;;14.18;61.21
3150;BME280;32503;47.748;8.960;2023-04-30T03:13:31;96983.78;;;14.24;61.08
3150;BME280;32503;47.748;8.960;2023-04-30T03:15:59;96980.69;;;14.26;61.39
3150;BME280;32503;47.748;8.960;2023-04-30T03:18:27;96965.44;;;14.14;60.82
3150;BME280;32503;47.748;8.960;2023-04-30T03:20:55;96991.25;;;14.34;60.76
3150;BME280;32503;47.748;8.960;2023-04-30T03:23:22;96981.88;;;14.28;61.05
3150;BME280;32503;47.748;8.960;2023-04-30T03:25:50;96985.03;;;14.34;61.12
3150;BME280;32503;47.748;8.960;2023-04-30T03:28:18;96971.78;;;14.29;60.91
3150;BME280;32503;47.748;8.960;2023-04-30T03:30:46;96990.03;;;14.28;61.07
3150;BME280;32503;47.748;8.960;2023-04-30T03:33:13;96988.63;;;14.04;61.77
3150;BME280;32503;47.748;8.960;2023-04-30T03:35:40;96985.16;;;14.03;61.31
3150;BME280;32503;47.748;8.960;2023-04-30T03:38:07;96983.25;;;14.08;61.91
3150;BME280;32503;47.748;8.960;2023-04-30T03:40:34;96984.00;;;14.08;61.76
3150;BME280;32503;47.748;8.960;2023-04-30T03:43:03;96982.50;;;14.11;61.73
3150;BME280;32503;47.748;8.960;2023-04-30T03:45:30;96985.63;;;14.13;61.82
3150;BME280;32503;47.748;8.960;2023-04-30T03:47:57;96975.13;;;14.11;61.53
3150;BME280;32503;47.748;8.960;2023-04-30T03:50:24;96981.00;;;14.17;61.46
3150;BME280;32503;47.748;8.960;2023-04-30T03:52:51;96984.53;;;14.21;61.25
3150;BME280;32503;47.748;8.960;2023-04-30T03:55:18;96980.66;;;14.22;61.35
3150;BME280;32503;47.748;8.960;2023-04-30T03:57:45;96978.00;;;14.29;61.18
3150;BME280;32503;47.748;8.960;2023-04-30T04:00:14;96977.19;;;14.25;61.00
3150;BME280;32503;47.748;8.960;2023-04-30T04:02:41;96974.84;;;14.23;60.80
3150;BME280;32503;47.748;8.960;2023-04-30T04:05:09;96975.53;;;14.17;61.07
3150;BME280;32503;47.748;8.960;2023-04-30T04:07:36;96987.25;;;14.21;60.98
3150;BME280;32503;47.748;8.960;2023-04-30T04:10:04;96976.38;;;14.21;61.14
3150;BME280;32503;47.748;8.960;2023-04-30T04:12:31;96981.84;;;14.25;60.74
3150;BME280;32503;47.748;8.960;2023-04-30T04:14:58;96978.69;;;14.19;60.85
3150;BME280;32503;47.748;8.960;2023-04-30T04:17:27;96985.69;;;14.20;60.77
3150;BME280;32503;47.748;8.960;2023-04-30T04:19:54;96985.28;;;14.18;60.89
3150;BME280;32503;47.748;8.960;2023-04-30T04:22:21;96978.69;;;14.19;60.83
3150;BME280;32503;47.748;8.960;2023-04-30T04:24:48;96980.63;;;14.18;60.91
3150;BME280;32503;47.748;8.960;2023-04-30T04:27:15;96986.44;;;14.17;61.15
3150;BME280;32503;47.748;8.960;2023-04-30T04:29:43;96986.88;;;14.22;60.87
3150;BME280;32503;47.748;8.960;2023-04-30T04:32:10;96981.09;;;14.28;60.95
3150;BME280;32503;47.748;8.960;2023-04-30T04:34:38;96991.59;;;14.29;60.82
3150;BME280;32503;47.748;8.960;2023-04-30T04:37:05;96986.56;;;14.31;60.82
3150;BME280;32503;47.748;8.960;2023-04-30T04:39:33;96980.31;;;14.27;60.67
3150;BME280;32503;47.748;8.960;2023-04-30T04:42:01;96981.13;;;14.31;60.68
3150;BME280;32503;47.748;8.960;2023-04-30T04:44:28;96984.25;;;14.33;60.38
3150;BME280;32503;47.748;8.960;2023-04-30T04:46:55;96984.66;;;14.35;60.10
3150;BME280;32503;47.748;8.960;2023-04-30T04:49:22;96984.25;;;14.33;60.16
3150;BME280;32503;47.748;8.960;2023-04-30T04:51:51;96988.88;;;14.33;60.32
3150;BME280;32503;47.748;8.960;2023-04-30T04:54:18;96978.00;;;14.29;60.56
3150;BME280;32503;47.748;8.960;2023-04-30T04:56:47;96983.44;;;14.29;60.85
3150;BME280;32503;47.748;8.960;2023-04-30T04:59:15;96981.13;;;14.31;60.76
3150;BME280;32503;47.748;8.960;2023-04-30T05:01:43;96986.16;;;14.29;60.97
3150;BME280;32503;47.748;8.960;2023-04-30T05:04:10;96987.75;;;14.34;61.02
3150;BME280;32503;47.748;8.960;2023-04-30T05:06:38;96988.13;;;14.32;60.54
3150;BME280;32503;47.748;8.960;2023-04-30T05:09:07;96988.13;;;14.32;60.96
3150;BME280;32503;47.748;8.960;2023-04-30T05:11:35;96989.63;;;14.26;60.71
3150;BME280;32503;47.748;8.960;2023-04-30T05:14:02;96994.72;;;14.31;60.83
3150;BME280;32503;47.748;8.960;2023-04-30T05:16:29;96990.03;;;14.28;60.66
3150;BME280;32503;47.748;8.960;2023-04-30T05:18:56;97002.06;;;14.27;60.61
3150;BME280;32503;47.748;8.960;2023-04-30T05:21:23;96997.41;;;14.28;60.51
3150;BME280;32503;47.748;8.960;2023-04-30T05:23:50;97005.97;;;14.30;60.56
3150;BME280;32503;47.748;8.960;2023-04-30T05:26:19;97003.25;;;14.30;60.63
3150;BME280;32503;47.748;8.960;2023-04-30T05:28:48;97006.78;;;14.34;60.36
3150;BME280;32503;47.748;8.960;2023-04-30T05:31:15;97006.78;;;14.34;60.57
3150;BME280;32503;47.748;8.960;2023-04-30T05:33:42;97002.13;;;14.34;60.46
3150;BME280;32503;47.748;8.960;2023-04-30T05:36:09;96997.84;;;14.33;60.50
3150;BME280;32503;47.748;8.960;2023-04-30T05:38:36;96997.44;;;14.31;60.46
3150;BME280;32503;47.748;8.960;2023-04-30T05:41:04;97002.13;;;14.34;60.66
3150;BME280;32503;47.748;8.960;2023-04-30T05:43:32;96989.34;;;14.38;60.08
3150;BME280;32503;47.748;8.960;2023-04-30T05:46:02;96998.31;;;14.43;59.96
3150;BME280;32503;47.748;8.960;2023-04-30T05:48:30;96995.97;;;14.41;60.34
3150;BME280;32503;47.748;8.960;2023-04-30T05:50:57;96985.81;;;14.34;60.08
3150;BME280;32503;47.748;8.960;2023-04-30T05:53:24;96988.56;;;14.41;60.05
3150;BME280;32503;47.748;8.960;2023-04-30T05:55:51;96989.69;;;14.33;60.46
3150;BME280;32503;47.748;8.960;2023-04-30T05:58:18;96981.09;;;14.28;60.11
3150;BME280;32503;47.748;8.960;2023-04-30T06:00:48;96992.06;;;14.38;60.30
3150;BME280;32503;47.748;8.960;2023-04-30T06:03:17;96995.22;;;14.44;60.52
3150;BME280;32503;47.748;8.960;2023-04-30T06:05:45;96986.34;;;14.51;60.50
3150;BME280;32503;47.748;8.960;2023-04-30T06:08:12;96986.00;;;14.56;60.27
3150;BME280;32503;47.748;8.960;2023-04-30T06:10:39;96989.53;;;14.60;60.08
3150;BME280;32503;47.748;8.960;2023-04-30T06:13:07;96986.84;;;14.64;59.94
3150;BME280;32503;47.748;8.960;2023-04-30T06:15:34;96988.47;;;14.72;59.67
3150;BME280;32503;47.748;8.960;2023-04-30T06:18:02;96983.81;;;14.72;59.68
3150;BME280;32503;47.748;8.960;2023-04-30T06:20:29;96985.34;;;14.73;59.23
3150;BME280;32503;47.748;8.960;2023-04-30T06:22:56;96984.59;;;14.76;59.51
3150;BME280;32503;47.748;8.960;2023-04-30T06:25:24;96982.28;;;14.78;59.13
3150;BME280;32503;47.748;8.960;2023-04-30T06:27:52;96988.53;;;14.83;59.24
3150;BME280;32503;47.748;8.960;2023-04-30T06:30:19;96976.91;;;14.93;58.51
3150;BME280;32503;47.748;8.960;2023-04-30T06:32:46;96986.66;;;14.94;58.82
3150;BME280;32503;47.748;8.960;2023-04-30T06:35:15;96989.03;;;14.99;58.55
3150;BME280;32503;47.748;8.960;2023-04-30T06:37:42;96983.22;;;15.04;58.20
3150;BME280;32503;47.748;8.960;2023-04-30T06:40:09;96978.97;;;15.10;58.49
3150;BME280;32503;47.748;8.960;2023-04-30T06:42:36;96984.88;;;15.20;58.35
3150;BME280;32503;47.748;8.960;2023-04-30T06:45:05;96975.94;;;15.30;57.98
3150;BME280;32503;47.748;8.960;2023-04-30T06:47:32;96981.00;;;15.31;57.18
3150;BME280;32503;47.748;8.960;2023-04-30T06:50:03;96981.03;;;15.35;57.43
3150;BME280;32503;47.748;8.960;2023-04-30T06:52:31;96962.78;;;15.39;57.46
3150;BME280;32503;47.748;8.960;2023-04-30T06:54:58;96977.22;;;15.58;57.41
3150;BME280;32503;47.748;8.960;2023-04-30T06:57:25;96976.09;;;15.66;56.81
3150;BME280;32503;47.748;8.960;2023-04-30T06:59:52;96982.72;;;15.72;56.61
3150;BME280;32503;47.748;8.960;2023-04-30T07:02:20;96973.44;;;15.77;55.78
3150;BME280;32503;47.748;8.960;2023-04-30T07:04:47;96978.50;;;15.85;56.01
3150;BME280;32503;47.748;8.960;2023-04-30T07:07:14;96982.03;;;15.97;55.95
3150;BME280;32503;47.748;8.960;2023-04-30T07:09:43;96978.94;;;16.02;55.39
3150;BME280;32503;47.748;8.960;2023-04-30T07:12:10;96984.75;;;15.89;54.81
3150;BME280;32503;47.748;8.960;2023-04-30T07:14:38;96975.06;;;16.06;55.14
3150;BME280;32503;47.748;8.960;2023-04-30T07:17:05;96975.44;;;16.19;54.70
3150;BME280;32503;47.748;8.960;2023-04-30T07:19:32;96971.19;;;16.22;54.55
3150;BME280;32503;47.748;8.960;2023-04-30T07:21:59;96965.72;;;16.43;54.88
3150;BME280;32503;47.748;8.960;2023-04-30T07:24:26;96961.03;;;16.55;54.11
3150;BME280;32503;47.748;8.960;2023-04-30T07:26:55;96971.94;;;16.65;53.62
3150;BME280;32503;47.748;8.960;2023-04-30T07:29:23;96978.56;;;16.72;53.91
3150;BME280;32503;47.748;8.960;2023-04-30T07:31:50;96984.41;;;16.77;53.56
3150;BME280;32503;47.748;8.960;2023-04-30T07:34:18;96987.53;;;16.79;53.02
3150;BME280;32503;47.748;8.960;2023-04-30T07:36:46;96985.97;;;16.82;53.25
3150;BME280;32503;47.748;8.960;2023-04-30T07:39:14;96984.38;;;17.02;53.30
3150;BME280;32503;47.748;8.960;2023-04-30T07:41:42;96990.22;;;17.19;51.95
3150;BME280;32503;47.748;8.960;2023-04-30T07:44:11;96988.97;;;17.34;52.18
3150;BME280;32503;47.748;8.960;2023-04-30T07:46:38;96974.53;;;17.41;51.23
3150;BME280;32503;47.748;8.960;2023-04-30T07:49:05;96975.66;;;17.51;50.93
3150;BME280;32503;47.748;8.960;2023-04-30T07:51:34;96973.28;;;17.56;51.30
3150;BME280;32503;47.748;8.960;2023-04-30T07:54:02;96967.00;;;17.67;50.89
3150;BME280;32503;47.748;8.960;2023-04-30T07:56:29;96959.94;;;17.73;50.43
3150;BME280;32503;47.748;8.960;2023-04-30T07:58:56;96965.34;;;17.80;50.50
3150;BME280;32503;47.748;8.960;2023-04-30T08:01:25;96953.53;;;18.01;50.71
3150;BME280;32503;47.748;8.960;2023-04-30T08:03:52;96961.22;;;18.21;49.92
3150;BME280;32503;47.748;8.960;2023-04-30T08:06:19;96953.22;;;18.44;49.63
3150;BME280;32503;47.748;8.960;2023-04-30T08:08:46;96960.38;;;18.76;48.86
3150;BME280;32503;47.748;8.960;2023-04-30T08:11:13;96955.81;;;19.04;46.98
3150;BME280;32503;47.748;8.960;2023-04-30T08:13:41;96950.66;;;19.44;46.89
3150;BME280;32503;47.748;8.960;2023-04-30T08:16:08;96945.19;;;19.71;46.18
3150;BME280;32503;47.748;8.960;2023-04-30T08:18:37;96951.94;;;19.66;46.16
3150;BME280;32503;47.748;8.960;2023-04-30T08:21:08;96954.78;;;19.90;45.55
3150;BME280;32503;47.748;8.960;2023-04-30T08:23:36;96953.22;;;19.89;45.30
3150;BME280;32503;47.748;8.960;2023-04-30T08:26:03;96954.06;;;19.86;44.42
3150;BME280;32503;47.748;8.960;2023-04-30T08:28:30;96954.97;;;19.45;45.33
3150;BME280;32503;47.748;8.960;2023-04-30T08:30:57;96960.94;;;19.67;45.20
3150;BME280;32503;47.748;8.960;2023-04-30T08:33:25;96959.28;;;20.04;45.28
3150;BME280;32503;47.748;8.960;2023-04-30T08:35:53;96958.28;;;20.18;43.94
3150;BME280;32503;47.748;8.960;2023-04-30T08:38:20;96954.84;;;20.14;43.77
3150;BME280;32503;47.748;8.960;2023-04-30T08:41:07;96947.63;;;20.23;44.45
3150;BME280;32503;47.748;8.960;2023-04-30T08:43:35;96942.56;;;20.45;43.16
3150;BME280;32503;47.748;8.960;2023-04-30T08:46:03;96950.00;;;20.45;42.42
3150;BME280;32503;47.748;8.960;2023-04-30T08:48:31;96950.41;;;20.43;43.05
3150;BME280;32503;47.748;8.960;2023-04-30T08:51:01;96956.38;;;20.66;42.24
3150;BME280;32503;47.748;8.960;2023-04-30T08:53:29;96958.59;;;20.47;42.43
3150;BME280;32503;47.748;8.960;2023-04-30T08:58:22;96963.56;;;20.32;42.79
3150;BME280;32503;47.748;8.960;2023-04-30T09:00:49;96964.53;;;20.45;42.63
3150;BME280;32503;47.748;8.960;2023-04-30T09:03:16;96956.94;;;20.53;42.39
3150;BME280;32503;47.748;8.960;2023-04-30T09:05:43;96966.06;;;20.46;42.74
3150;BME280;32503;47.748;8.960;2023-04-30T09:08:16;96956.41;;;20.38;42.77
3150;BME280;32503;47.748;8.960;2023-04-30T09:10:45;96952.56;;;20.56;43.04
3150;BME280;32503;47.748;8.960;2023-04-30T09:13:12;96957.34;;;20.79;42.75
3150;BME280;32503;47.748;8.960;2023-04-30T09:15:39;96957.75;;;20.77;42.81
3150;BME280;32503;47.748;8.960;2023-04-30T09:18:10;96955.63;;;20.85;42.03
3150;BME280;32503;47.748;8.960;2023-04-30T09:20:53;96954.91;;;20.34;41.81
3150;BME280;32503;47.748;8.960;2023-04-30T09:23:22;96955.59;;;19.87;42.60
3150;BME280;32503;47.748;8.960;2023-04-30T09:25:49;96950.09;;;19.87;42.92
3150;BME280;32503;47.748;8.960;2023-04-30T09:28:18;96958.50;;;19.73;43.43
3150;BME280;32503;47.748;8.960;2023-04-30T09:30:49;96953.94;;;19.93;42.90
3150;BME280;32503;47.748;8.960;2023-04-30T09:33:16;96956.66;;;20.20;41.91
3150;BME280;32503;47.748;8.960;2023-04-30T09:35:43;96948.19;;;20.38;41.44
3150;BME280;32503;47.748;8.960;2023-04-30T09:38:27;96958.59;;;20.47;40.98
3150;BME280;32503;47.748;8.960;2023-04-30T09:40:57;96940.66;;;20.42;41.13
3150;BME280;32503;47.748;8.960;2023-04-30T09:43:24;96943.16;;;20.80;40.90
3150;BME280;32503;47.748;8.960;2023-04-30T09:45:51;96942.38;;;20.80;41.38
3150;BME280;32503;47.748;8.960;2023-04-30T09:48:21;96943.28;;;20.50;40.99
3150;BME280;32503;47.748;8.960;2023-04-30T09:50:48;96938.25;;;20.44;40.84
3150;BME280;32503;47.748;8.960;2023-04-30T09:53:16;96932.22;;;20.77;40.26
3150;BME280;32503;47.748;8.960;2023-04-30T09:55:46;96937.50;;;20.68;40.46
3150;BME280;32503;47.748;8.960;2023-04-30T09:58:15;96947.38;;;20.65;40.82
3150;BME280;32503;47.748;8.960;2023-04-30T10:00:44;96949.25;;;20.68;40.20
3150;BME280;32503;47.748;8.960;2023-04-30T10:03:14;96944.34;;;20.56;40.10
3150;BME280;32503;47.748;8.960;2023-04-30T10:05:42;96938.13;;;20.52;39.75
3150;BME280;32503;47.748;8.960;2023-04-30T10:08:24;96942.22;;;19.93;41.75
3150;BME280;32503;47.748;8.960;2023-04-30T10:11:03;96937.06;;;19.95;41.36
3150;BME280;32503;47.748;8.960;2023-04-30T10:13:34;96934.28;;;19.98;41.72
3150;BME280;32503;47.748;8.960;2023-04-30T10:16:08;96923.44;;;20.15;41.35
3150;BME280;32503;47.748;8.960;2023-04-30T10:18:39;96928.16;;;20.14;41.37
3150;BME280;32503;47.748;8.960;2023-04-30T10:21:12;96919.03;;;20.21;41.01
3150;BME280;32503;47.748;8.960;2023-04-30T10:23:41;96929.78;;;20.35;40.93
3150;BME280;32503;47.748;8.960;2023-04-30T10:26:10;96919.56;;;20.36;40.15
3150;BME280;32503;47.748;8.960;2023-04-30T10:28:37;96923.03;;;20.40;40.63
3150;BME280;32503;47.748;8.960;2023-04-30T10:31:06;96932.25;;;20.02;40.44
3150;BME280;32503;47.748;8.960;2023-04-30T10:33:45;96903.09;;;19.85;41.22
3150;BME280;32503;47.748;8.960;2023-04-30T10:36:25;96906.22;;;19.87;41.78
3150;BME280;32503;47.748;8.960;2023-04-30T10:38:56;96903.38;;;19.94;41.41
3150;BME280;32503;47.748;8.960;2023-04-30T10:41:26;96909.47;;;20.05;41.17
3150;BME280;32503;47.748;8.960;2023-04-30T10:43:56;96902.88;;;19.45;42.00
3150;BME280;32503;47.748;8.960;2023-04-30T10:46:24;96903.41;;;19.63;41.80
3150;BME280;32503;47.748;8.960;2023-04-30T10:48:53;96906.09;;;19.67;41.69
3150;BME280;32503;47.748;8.960;2023-04-30T10:51:22;96893.81;;;19.79;41.41
3150;BME280;32503;47.748;8.960;2023-04-30T10:53:50;96895.41;;;19.45;42.22
3150;BME280;32503;47.748;8.960;2023-04-30T10:56:32;96910.16;;;19.24;42.98
3150;BME280;32503;47.748;8.960;2023-04-30T10:59:00;96890.28;;;19.47;41.98
3150;BME280;32503;47.748;8.960;2023-04-30T11:01:28;96892.63;;;19.49;41.78
3150;BME280;32503;47.748;8.960;2023-04-30T11:04:06;96891.31;;;19.61;41.79
3150;BME280;32503;47.748;8.960;2023-04-30T11:06:48;96889.38;;;19.58;42.27
3150;BME280;32503;47.748;8.960;2023-04-30T11:09:33;96885.13;;;19.53;41.98
3150;BME280;32503;47.748;8.960;2023-04-30T11:12:04;96886.06;;;19.70;41.63
3150;BME280;32503;47.748;8.960;2023-04-30T11:14:40;96896.31;;;19.66;42.12
3150;BME280;32503;47.748;8.960;2023-04-30T11:17:10;96878.91;;;19.49;42.19
3150;BME280;32503;47.748;8.960;2023-04-30T11:19:46;96876.69;;;19.67;41.55
3150;BME280;32503;47.748;8.960;2023-04-30T11:22:20;96900.53;;;19.74;41.98
3150;BME280;32503;47.748;8.960;2023-04-30T11:24:53;96871.50;;;19.19;42.72
3150;BME280;32503;47.748;8.960;2023-04-30T11:27:23;96885.31;;;19.39;42.71
3150;BME280;32503;47.748;8.960;2023-04-30T11:29:51;96883.19;;;19.54;42.98
3150;BME280;32503;47.748;8.960;2023-04-30T11:32:19;96888.41;;;19.72;42.26
3150;BME280;32503;47.748;8.960;2023-04-30T11:34:47;96887.50;;;19.82;41.94
3150;BME280;32503;47.748;8.960;2023-04-30T11:37:19;96882.31;;;19.87;41.85
3150;BME280;32503;47.748;8.960;2023-04-30T11:39:47;96868.94;;;19.62;41.91
3150;BME280;32503;47.748;8.960;2023-04-30T11:42:18;96873.03;;;19.50;42.00
3150;BME280;32503;47.748;8.960;2023-04-30T11:44:47;96869.59;;;19.74;42.02
3150;BME280;32503;47.748;8.960;2023-04-30T11:47:14;96872.69;;;19.76;42.03
3150;BME280;32503;47.748;8.960;2023-04-30T11:49:42;96877.06;;;19.97;41.68
3150;BME280;32503;47.748;8.960;2023-04-30T11:52:11;96875.59;;;20.16;41.61
3150;BME280;32503;47.748;8.960;2023-04-30T11:54:38;96868.31;;;20.29;41.05
3150;BME280;32503;47.748;8.960;2023-04-30T11:57:05;96868.78;;;20.24;41.18
3150;BME280;32503;47.748;8.960;2023-04-30T11:59:39;96880.84;;;20.30;41.16
3150;BME280;32503;47.748;8.960;2023-04-30T12:02:08;96871.00;;;20.33;41.05
3150;BME280;32503;47.748;8.960;2023-04-30T12:04:36;96873.03;;;20.29;41.15
3150;BME280;32503;47.748;8.960;2023-04-30T12:07:06;96864.78;;;20.29;40.27
3150;BME280;32503;47.748;8.960;2023-04-30T12:09:52;96866.59;;;20.59;39.83
3150;BME280;32503;47.748;8.960;2023-04-30T12:12:26;96859.81;;;20.87;39.58
3150;BME280;32503;47.748;8.960;2023-04-30T12:14:54;96860.19;;;21.09;39.43
3150;BME280;32503;47.748;8.960;2023-04-30T12:17:32;96856.22;;;21.30;38.61
3150;BME280;32503;47.748;8.960;2023-04-30T12:20:00;96859.41;;;21.45;38.54
3150;BME280;32503;47.748;8.960;2023-04-30T12:22:27;96862.31;;;21.58;39.07
3150;BME280;32503;47.748;8.960;2023-04-30T12:24:55;96856.72;;;21.62;38.10
3150;BME280;32503;47.748;8.960;2023-04-30T12:27:22;96862.25;;;21.42;38.65
3150;BME280;32503;47.748;8.960;2023-04-30T12:29:49;96857.25;;;21.36;38.65
3150;BME280;32503;47.748;8.960;2023-04-30T12:32:20;96842.72;;;21.36;38.44
3150;BME280;32503;47.748;8.960;2023-04-30T12:34:49;96856.00;;;21.21;38.75
3150;BME280;32503;47.748;8.960;2023-04-30T12:37:16;96850.78;;;21.27;38.86
3150;BME280;32503;47.748;8.960;2023-04-30T12:39:43;96836.50;;;21.15;38.73
3150;BME280;32503;47.748;8.960;2023-04-30T12:42:12;96841.09;;;21.02;39.24
3150;BME280;32503;47.748;8.960;2023-04-30T12:44:44;96842.63;;;21.03;39.84
3150;BME280;32503;47.748;8.960;2023-04-30T12:47:11;96840.59;;;20.87;38.88
3150;BME280;32503;47.748;8.960;2023-04-30T12:49:39;96830.75;;;20.90;39.08
3150;BME280;32503;47.748;8.960;2023-04-30T12:52:10;96844.97;;;20.61;39.60
3150;BME280;32503;47.748;8.960;2023-04-30T12:54:38;96832.63;;;20.29;39.93
3150;BME280;32503;47.748;8.960;2023-04-30T12:57:07;96838.97;;;20.26;40.73
3150;BME280;32503;47.748;8.960;2023-04-30T12:59:38;96830.41;;;20.44;40.54
3150;BME280;32503;47.748;8.960;2023-04-30T13:02:07;96821.28;;;20.51;40.35
3150;BME280;32503;47.748;8.960;2023-04-30T13:04:35;96831.50;;;20.90;40.02
3150;BME280;32503;47.748;8.960;2023-04-30T13:07:03;96829.69;;;21.04;39.37
3150;BME280;32503;47.748;8.960;2023-04-30T13:09:32;96832.84;;;21.02;38.96
3150;BME280;32503;47.748;8.960;2023-04-30T13:11:59;96828.69;;;20.94;38.83
3150;BME280;32503;47.748;8.960;2023-04-30T13:14:26;96844.06;;;20.91;38.86
3150;BME280;32503;47.748;8.960;2023-04-30T13:16:53;96832.47;;;21.00;39.11
3150;BME280;32503;47.748;8.960;2023-04-30T13:19:21;96838.69;;;20.84;38.87
3150;BME280;32503;47.748;8.960;2023-04-30T13:21:48;96827.63;;;20.88;39.28